Blandville, West Virginia
Current Conditions -  °F | °C
As of 10:53 PM on Saturday 25 Oct 2014 (Local Time) from KCKB Reporting Station
Broken Clouds Broken Clouds  
Wind Chill: 59°   Ceiling: 2700
Heat Index: 59°   Visibility: 10mi
Dew Point: 52°   Wind: 10mph
Humidity: 78%   Direction: 260°W
Pressure: 29.84"   Gusts: NA
Location:  39.26°N, 80.71°W
Report Text: KCKB 260253Z 26009KT 10SM BKN027 15/11 A2984 RMK AO2 SLP098 T01500111 55001
Loading
Personal Weather Stations






























Interactive Weather Map
Tropical Storm Tracking
New forecast layout! Learn more

10-Day Weather Forecast

Advertisements
Track Severe Weather on mobile